sensor_id;sensor_type;location;lat;lon;timestamp;P1;durP1;ratioP1;P2;durP2;ratioP2
69837;SDS011;57135;51.992;4.476;2024-03-08T00:00:15;26.51;;;25.31;;
69837;SDS011;57135;51.992;4.476;2024-03-08T00:02:43;25.72;;;24.39;;
69837;SDS011;57135;51.992;4.476;2024-03-08T00:05:10;26.48;;;25.03;;
69837;SDS011;57135;51.992;4.476;2024-03-08T00:07:37;27.45;;;26.03;;
69837;SDS011;57135;51.992;4.476;2024-03-08T00:10:04;27.62;;;25.89;;
69837;SDS011;57135;51.992;4.476;2024-03-08T00:12:30;26.89;;;25.49;;
69837;SDS011;57135;51.992;4.476;2024-03-08T00:14:55;27.27;;;26.01;;
69837;SDS011;57135;51.992;4.476;2024-03-08T00:17:21;26.07;;;24.99;;
69837;SDS011;57135;51.992;4.476;2024-03-08T00:19:50;26.56;;;25.54;;
69837;SDS011;57135;51.992;4.476;2024-03-08T00:22:19;26.97;;;25.54;;
69837;SDS011;57135;51.992;4.476;2024-03-08T00:24:44;25.70;;;24.64;;
69837;SDS011;57135;51.992;4.476;2024-03-08T00:27:10;26.04;;;24.89;;
69837;SDS011;57135;51.992;4.476;2024-03-08T00:29:36;26.86;;;25.51;;
69837;SDS011;57135;51.992;4.476;2024-03-08T00:32:04;26.19;;;24.98;;
69837;SDS011;57135;51.992;4.476;2024-03-08T00:34:29;26.07;;;25.12;;
69837;SDS011;57135;51.992;4.476;2024-03-08T00:36:56;26.15;;;25.13;;
69837;SDS011;57135;51.992;4.476;2024-03-08T00:39:22;26.75;;;25.58;;
69837;SDS011;57135;51.992;4.476;2024-03-08T00:41:48;25.48;;;24.57;;
69837;SDS011;57135;51.992;4.476;2024-03-08T00:44:13;26.13;;;25.10;;
69837;SDS011;57135;51.992;4.476;2024-03-08T00:46:39;26.85;;;25.83;;
69837;SDS011;57135;51.992;4.476;2024-03-08T00:49:04;25.47;;;24.71;;
69837;SDS011;57135;51.992;4.476;2024-03-08T00:51:30;26.36;;;25.21;;
69837;SDS011;57135;51.992;4.476;2024-03-08T00:53:55;26.60;;;25.41;;
69837;SDS011;57135;51.992;4.476;2024-03-08T00:56:20;26.34;;;25.45;;
69837;SDS011;57135;51.992;4.476;2024-03-08T00:58:46;25.70;;;24.88;;
69837;SDS011;57135;51.992;4.476;2024-03-08T01:01:12;26.17;;;25.06;;
69837;SDS011;57135;51.992;4.476;2024-03-08T01:03:42;24.89;;;24.23;;
69837;SDS011;57135;51.992;4.476;2024-03-08T01:06:08;26.38;;;25.07;;
69837;SDS011;57135;51.992;4.476;2024-03-08T01:08:34;26.68;;;25.64;;
69837;SDS011;57135;51.992;4.476;2024-03-08T01:10:59;26.25;;;25.25;;
69837;SDS011;57135;51.992;4.476;2024-03-08T01:13:25;25.59;;;24.81;;
69837;SDS011;57135;51.992;4.476;2024-03-08T01:15:51;25.08;;;24.36;;
69837;SDS011;57135;51.992;4.476;2024-03-08T02:11:06;26.03;;;25.26;;
69837;SDS011;57135;51.992;4.476;2024-03-08T02:13:31;26.16;;;25.46;;
69837;SDS011;57135;51.992;4.476;2024-03-08T02:16:00;25.77;;;24.88;;
69837;SDS011;57135;51.992;4.476;2024-03-08T02:18:26;26.64;;;25.57;;
69837;SDS011;57135;51.992;4.476;2024-03-08T02:20:53;27.10;;;26.15;;
69837;SDS011;57135;51.992;4.476;2024-03-08T02:23:20;26.17;;;25.59;;
69837;SDS011;57135;51.992;4.476;2024-03-08T02:25:50;25.36;;;24.86;;
69837;SDS011;57135;51.992;4.476;2024-03-08T02:28:16;25.21;;;24.63;;
69837;SDS011;57135;51.992;4.476;2024-03-08T02:30:45;25.23;;;24.55;;
69837;SDS011;57135;51.992;4.476;2024-03-08T02:33:14;26.05;;;25.08;;
69837;SDS011;57135;51.992;4.476;2024-03-08T02:35:44;25.30;;;24.63;;
69837;SDS011;57135;51.992;4.476;2024-03-08T02:38:13;26.33;;;25.58;;
69837;SDS011;57135;51.992;4.476;2024-03-08T02:40:43;26.33;;;25.51;;
69837;SDS011;57135;51.992;4.476;2024-03-08T02:43:10;25.75;;;24.94;;
69837;SDS011;57135;51.992;4.476;2024-03-08T02:45:36;26.42;;;25.48;;
69837;SDS011;57135;51.992;4.476;2024-03-08T02:48:02;26.25;;;25.56;;
69837;SDS011;57135;51.992;4.476;2024-03-08T02:50:28;25.61;;;25.00;;
69837;SDS011;57135;51.992;4.476;2024-03-08T02:52:53;26.44;;;25.72;;
69837;SDS011;57135;51.992;4.476;2024-03-08T02:55:19;26.67;;;26.01;;
69837;SDS011;57135;51.992;4.476;2024-03-08T02:57:45;26.32;;;25.56;;
69837;SDS011;57135;51.992;4.476;2024-03-08T03:00:12;26.71;;;25.96;;
69837;SDS011;57135;51.992;4.476;2024-03-08T03:02:38;26.37;;;25.63;;
69837;SDS011;57135;51.992;4.476;2024-03-08T03:05:04;26.64;;;26.03;;
69837;SDS011;57135;51.992;4.476;2024-03-08T03:07:34;26.25;;;25.50;;
69837;SDS011;57135;51.992;4.476;2024-03-08T03:10:00;26.01;;;25.50;;
69837;SDS011;57135;51.992;4.476;2024-03-08T04:25:56;28.10;;;27.61;;
69837;SDS011;57135;51.992;4.476;2024-03-08T04:28:21;28.29;;;27.68;;
69837;SDS011;57135;51.992;4.476;2024-03-08T04:30:47;27.93;;;27.26;;
69837;SDS011;57135;51.992;4.476;2024-03-08T04:33:12;29.14;;;28.62;;
69837;SDS011;57135;51.992;4.476;2024-03-08T04:35:39;28.41;;;27.91;;
69837;SDS011;57135;51.992;4.476;2024-03-08T04:38:05;29.54;;;28.81;;
69837;SDS011;57135;51.992;4.476;2024-03-08T04:40:33;28.80;;;28.28;;
69837;SDS011;57135;51.992;4.476;2024-03-08T04:43:02;28.64;;;27.91;;
69837;SDS011;57135;51.992;4.476;2024-03-08T04:45:28;29.86;;;29.12;;
69837;SDS011;57135;51.992;4.476;2024-03-08T04:47:53;29.48;;;28.72;;
69837;SDS011;57135;51.992;4.476;2024-03-08T04:50:19;29.07;;;28.40;;
69837;SDS011;57135;51.992;4.476;2024-03-08T04:52:44;29.50;;;28.86;;
69837;SDS011;57135;51.992;4.476;2024-03-08T04:55:10;29.43;;;28.95;;
69837;SDS011;57135;51.992;4.476;2024-03-08T04:57:35;28.75;;;28.12;;
69837;SDS011;57135;51.992;4.476;2024-03-08T05:00:02;29.50;;;28.63;;
69837;SDS011;57135;51.992;4.476;2024-03-08T06:57:41;31.35;;;30.74;;
69837;SDS011;57135;51.992;4.476;2024-03-08T07:00:07;31.38;;;30.54;;
69837;SDS011;57135;51.992;4.476;2024-03-08T07:02:43;31.62;;;30.96;;
69837;SDS011;57135;51.992;4.476;2024-03-08T07:05:11;31.56;;;30.74;;
69837;SDS011;57135;51.992;4.476;2024-03-08T07:07:36;31.58;;;30.71;;
69837;SDS011;57135;51.992;4.476;2024-03-08T07:10:02;31.18;;;30.38;;
69837;SDS011;57135;51.992;4.476;2024-03-08T07:12:28;30.67;;;30.03;;
69837;SDS011;57135;51.992;4.476;2024-03-08T07:14:53;30.66;;;29.97;;
69837;SDS011;57135;51.992;4.476;2024-03-08T07:17:19;31.01;;;30.33;;
69837;SDS011;57135;51.992;4.476;2024-03-08T07:19:45;31.14;;;30.35;;
69837;SDS011;57135;51.992;4.476;2024-03-08T07:22:10;30.86;;;30.13;;
69837;SDS011;57135;51.992;4.476;2024-03-08T07:24:36;30.98;;;30.13;;
69837;SDS011;57135;51.992;4.476;2024-03-08T07:27:02;31.50;;;30.56;;
69837;SDS011;57135;51.992;4.476;2024-03-08T07:29:30;31.19;;;30.51;;
69837;SDS011;57135;51.992;4.476;2024-03-08T07:31:56;30.61;;;29.71;;
69837;SDS011;57135;51.992;4.476;2024-03-08T07:34:36;29.95;;;29.40;;
69837;SDS011;57135;51.992;4.476;2024-03-08T07:37:02;30.82;;;30.08;;
69837;SDS011;57135;51.992;4.476;2024-03-08T07:39:29;30.53;;;29.81;;
69837;SDS011;57135;51.992;4.476;2024-03-08T07:41:54;29.98;;;29.22;;
69837;SDS011;57135;51.992;4.476;2024-03-08T07:44:20;30.31;;;29.61;;
69837;SDS011;57135;51.992;4.476;2024-03-08T07:46:45;29.70;;;29.05;;
69837;SDS011;57135;51.992;4.476;2024-03-08T07:49:11;29.52;;;28.87;;
69837;SDS011;57135;51.992;4.476;2024-03-08T07:51:37;30.21;;;29.47;;
69837;SDS011;57135;51.992;4.476;2024-03-08T07:54:03;30.10;;;29.41;;
69837;SDS011;57135;51.992;4.476;2024-03-08T07:56:34;29.89;;;29.20;;
69837;SDS011;57135;51.992;4.476;2024-03-08T07:59:01;28.52;;;28.14;;
69837;SDS011;57135;51.992;4.476;2024-03-08T08:01:29;29.92;;;29.28;;
69837;SDS011;57135;51.992;4.476;2024-03-08T08:03:55;29.96;;;29.08;;
69837;SDS011;57135;51.992;4.476;2024-03-08T08:06:21;29.67;;;29.13;;
69837;SDS011;57135;51.992;4.476;2024-03-08T08:08:47;29.45;;;28.91;;
69837;SDS011;57135;51.992;4.476;2024-03-08T08:11:12;28.78;;;28.32;;
69837;SDS011;57135;51.992;4.476;2024-03-08T08:13:39;29.74;;;28.93;;
69837;SDS011;57135;51.992;4.476;2024-03-08T08:16:07;29.90;;;28.98;;
69837;SDS011;57135;51.992;4.476;2024-03-08T08:18:32;28.28;;;27.75;;
69837;SDS011;57135;51.992;4.476;2024-03-08T08:20:58;29.12;;;28.64;;
69837;SDS011;57135;51.992;4.476;2024-03-08T08:23:25;28.83;;;28.24;;
69837;SDS011;57135;51.992;4.476;2024-03-08T08:25:51;29.40;;;28.69;;
69837;SDS011;57135;51.992;4.476;2024-03-08T08:28:17;29.31;;;28.66;;
69837;SDS011;57135;51.992;4.476;2024-03-08T08:30:46;29.82;;;28.88;;
69837;SDS011;57135;51.992;4.476;2024-03-08T08:33:14;28.53;;;27.88;;
69837;SDS011;57135;51.992;4.476;2024-03-08T08:35:40;28.13;;;27.73;;
69837;SDS011;57135;51.992;4.476;2024-03-08T08:38:06;29.56;;;28.89;;
69837;SDS011;57135;51.992;4.476;2024-03-08T08:40:32;28.67;;;28.17;;
69837;SDS011;57135;51.992;4.476;2024-03-08T08:42:58;31.72;;;31.10;;
69837;SDS011;57135;51.992;4.476;2024-03-08T08:45:25;32.47;;;31.94;;
69837;SDS011;57135;51.992;4.476;2024-03-08T08:47:51;29.47;;;29.12;;
69837;SDS011;57135;51.992;4.476;2024-03-08T08:50:17;30.15;;;29.79;;
69837;SDS011;57135;51.992;4.476;2024-03-08T08:52:48;29.45;;;29.02;;
69837;SDS011;57135;51.992;4.476;2024-03-08T08:55:14;29.13;;;28.61;;
69837;SDS011;57135;51.992;4.476;2024-03-08T08:57:40;29.06;;;28.60;;
69837;SDS011;57135;51.992;4.476;2024-03-08T09:00:06;29.58;;;28.81;;
69837;SDS011;57135;51.992;4.476;2024-03-08T09:02:36;29.32;;;28.78;;
69837;SDS011;57135;51.992;4.476;2024-03-08T09:05:02;27.92;;;27.53;;
69837;SDS011;57135;51.992;4.476;2024-03-08T09:07:28;29.42;;;28.94;;
69837;SDS011;57135;51.992;4.476;2024-03-08T09:09:54;28.92;;;28.41;;
69837;SDS011;57135;51.992;4.476;2024-03-08T09:12:25;27.80;;;27.49;;
69837;SDS011;57135;51.992;4.476;2024-03-08T09:14:50;28.73;;;28.20;;
69837;SDS011;57135;51.992;4.476;2024-03-08T09:17:16;28.74;;;28.15;;
69837;SDS011;57135;51.992;4.476;2024-03-08T09:19:49;27.89;;;27.40;;
69837;SDS011;57135;51.992;4.476;2024-03-08T09:22:17;27.81;;;27.24;;
69837;SDS011;57135;51.992;4.476;2024-03-08T09:24:45;27.21;;;26.65;;
69837;SDS011;57135;51.992;4.476;2024-03-08T09:27:11;28.31;;;27.49;;
69837;SDS011;57135;51.992;4.476;2024-03-08T09:29:37;28.51;;;28.17;;
69837;SDS011;57135;51.992;4.476;2024-03-08T09:32:02;27.96;;;27.48;;
69837;SDS011;57135;51.992;4.476;2024-03-08T09:34:28;27.92;;;27.45;;
69837;SDS011;57135;51.992;4.476;2024-03-08T09:36:53;27.68;;;27.13;;
69837;SDS011;57135;51.992;4.476;2024-03-08T09:39:19;27.28;;;26.72;;
69837;SDS011;57135;51.992;4.476;2024-03-08T09:41:46;27.43;;;27.10;;
69837;SDS011;57135;51.992;4.476;2024-03-08T09:44:15;27.64;;;27.16;;
69837;SDS011;57135;51.992;4.476;2024-03-08T09:46:41;27.82;;;27.42;;
69837;SDS011;57135;51.992;4.476;2024-03-08T09:49:07;27.81;;;27.22;;
69837;SDS011;57135;51.992;4.476;2024-03-08T09:51:34;27.61;;;27.07;;
69837;SDS011;57135;51.992;4.476;2024-03-08T09:54:03;28.06;;;27.51;;
69837;SDS011;57135;51.992;4.476;2024-03-08T09:56:31;26.68;;;26.15;;
69837;SDS011;57135;51.992;4.476;2024-03-08T09:58:58;27.14;;;26.71;;
69837;SDS011;57135;51.992;4.476;2024-03-08T10:01:42;26.76;;;26.17;;
69837;SDS011;57135;51.992;4.476;2024-03-08T10:04:13;27.31;;;26.72;;
69837;SDS011;57135;51.992;4.476;2024-03-08T10:06:39;27.16;;;26.68;;
69837;SDS011;57135;51.992;4.476;2024-03-08T10:09:05;27.06;;;26.64;;
69837;SDS011;57135;51.992;4.476;2024-03-08T10:11:33;26.24;;;25.78;;
69837;SDS011;57135;51.992;4.476;2024-03-08T10:13:59;27.14;;;26.48;;
69837;SDS011;57135;51.992;4.476;2024-03-08T10:16:25;26.50;;;26.02;;
69837;SDS011;57135;51.992;4.476;2024-03-08T10:18:52;26.05;;;25.58;;
69837;SDS011;57135;51.992;4.476;2024-03-08T10:21:18;26.73;;;26.14;;
69837;SDS011;57135;51.992;4.476;2024-03-08T10:23:44;26.34;;;25.70;;
69837;SDS011;57135;51.992;4.476;2024-03-08T10:28:35;25.97;;;25.43;;
69837;SDS011;57135;51.992;4.476;2024-03-08T10:31:00;25.79;;;25.32;;
69837;SDS011;57135;51.992;4.476;2024-03-08T10:33:26;26.34;;;25.81;;
69837;SDS011;57135;51.992;4.476;2024-03-08T10:35:51;26.90;;;26.40;;
69837;SDS011;57135;51.992;4.476;2024-03-08T10:38:18;25.27;;;24.83;;
69837;SDS011;57135;51.992;4.476;2024-03-08T10:40:47;25.79;;;25.32;;
69837;SDS011;57135;51.992;4.476;2024-03-08T10:43:24;24.94;;;24.61;;
69837;SDS011;57135;51.992;4.476;2024-03-08T10:45:59;24.46;;;24.09;;
69837;SDS011;57135;51.992;4.476;2024-03-08T10:48:43;24.69;;;24.23;;
69837;SDS011;57135;51.992;4.476;2024-03-08T10:51:11;24.93;;;24.43;;
69837;SDS011;57135;51.992;4.476;2024-03-08T10:53:37;24.39;;;24.02;;
69837;SDS011;57135;51.992;4.476;2024-03-08T10:56:06;24.43;;;23.98;;
69837;SDS011;57135;51.992;4.476;2024-03-08T10:58:34;24.35;;;23.98;;
69837;SDS011;57135;51.992;4.476;2024-03-08T11:01:01;24.47;;;24.19;;
69837;SDS011;57135;51.992;4.476;2024-03-08T11:06:10;24.25;;;23.88;;
69837;SDS011;57135;51.992;4.476;2024-03-08T11:08:41;23.74;;;23.43;;
69837;SDS011;57135;51.992;4.476;2024-03-08T11:11:23;24.38;;;23.98;;
69837;SDS011;57135;51.992;4.476;2024-03-08T11:13:53;24.90;;;24.51;;
69837;SDS011;57135;51.992;4.476;2024-03-08T11:18:49;24.54;;;24.13;;
69837;SDS011;57135;51.992;4.476;2024-03-08T11:21:15;24.40;;;23.92;;
69837;SDS011;57135;51.992;4.476;2024-03-08T11:23:42;24.21;;;23.74;;
69837;SDS011;57135;51.992;4.476;2024-03-08T11:26:20;24.19;;;23.70;;
69837;SDS011;57135;51.992;4.476;2024-03-08T11:28:51;24.04;;;23.50;;
69837;SDS011;57135;51.992;4.476;2024-03-08T11:34:41;23.43;;;23.10;;
69837;SDS011;57135;51.992;4.476;2024-03-08T11:37:11;23.22;;;22.89;;
69837;SDS011;57135;51.992;4.476;2024-03-08T11:39:39;23.35;;;23.01;;
69837;SDS011;57135;51.992;4.476;2024-03-08T11:42:05;23.41;;;22.88;;
69837;SDS011;57135;51.992;4.476;2024-03-08T11:44:31;22.96;;;22.61;;
69837;SDS011;57135;51.992;4.476;2024-03-08T11:46:57;22.61;;;22.14;;
69837;SDS011;57135;51.992;4.476;2024-03-08T11:49:23;22.77;;;22.45;;
69837;SDS011;57135;51.992;4.476;2024-03-08T11:51:52;22.81;;;22.50;;
69837;SDS011;57135;51.992;4.476;2024-03-08T11:54:18;22.30;;;21.94;;
69837;SDS011;57135;51.992;4.476;2024-03-08T11:56:44;22.31;;;22.00;;
69837;SDS011;57135;51.992;4.476;2024-03-08T11:59:13;22.09;;;21.78;;
69837;SDS011;57135;51.992;4.476;2024-03-08T12:01:39;22.70;;;22.38;;
69837;SDS011;57135;51.992;4.476;2024-03-08T12:04:05;22.71;;;22.20;;
69837;SDS011;57135;51.992;4.476;2024-03-08T12:06:37;22.22;;;21.81;;
69837;SDS011;57135;51.992;4.476;2024-03-08T12:09:07;22.00;;;21.57;;
69837;SDS011;57135;51.992;4.476;2024-03-08T12:11:34;22.70;;;22.28;;
69837;SDS011;57135;51.992;4.476;2024-03-08T12:14:01;21.48;;;21.15;;
69837;SDS011;57135;51.992;4.476;2024-03-08T12:16:27;21.88;;;21.49;;
69837;SDS011;57135;51.992;4.476;2024-03-08T12:18:52;22.73;;;22.34;;
69837;SDS011;57135;51.992;4.476;2024-03-08T12:21:19;23.22;;;22.87;;
69837;SDS011;57135;51.992;4.476;2024-03-08T12:24:01;22.29;;;22.02;;
69837;SDS011;57135;51.992;4.476;2024-03-08T12:26:28;21.84;;;21.55;;
69837;SDS011;57135;51.992;4.476;2024-03-08T12:28:53;22.07;;;21.73;;
69837;SDS011;57135;51.992;4.476;2024-03-08T12:31:20;22.70;;;22.42;;
69837;SDS011;57135;51.992;4.476;2024-03-08T12:33:48;22.54;;;22.19;;
69837;SDS011;57135;51.992;4.476;2024-03-08T12:36:17;22.08;;;21.69;;
69837;SDS011;57135;51.992;4.476;2024-03-08T12:38:46;22.05;;;21.70;;
69837;SDS011;57135;51.992;4.476;2024-03-08T12:41:16;22.86;;;22.53;;
69837;SDS011;57135;51.992;4.476;2024-03-08T12:43:43;21.93;;;21.55;;
69837;SDS011;57135;51.992;4.476;2024-03-08T12:46:18;23.13;;;22.68;;
69837;SDS011;57135;51.992;4.476;2024-03-08T12:48:45;22.93;;;22.38;;
69837;SDS011;57135;51.992;4.476;2024-03-08T12:51:14;23.49;;;23.07;;
69837;SDS011;57135;51.992;4.476;2024-03-08T12:53:43;22.26;;;21.78;;
69837;SDS011;57135;51.992;4.476;2024-03-08T12:56:13;21.74;;;21.27;;
69837;SDS011;57135;51.992;4.476;2024-03-08T12:58:44;22.15;;;21.74;;
69837;SDS011;57135;51.992;4.476;2024-03-08T13:01:10;22.37;;;21.90;;
69837;SDS011;57135;51.992;4.476;2024-03-08T13:03:35;22.25;;;21.87;;
69837;SDS011;57135;51.992;4.476;2024-03-08T13:06:02;22.25;;;21.88;;
69837;SDS011;57135;51.992;4.476;2024-03-08T13:08:33;21.60;;;21.21;;
69837;SDS011;57135;51.992;4.476;2024-03-08T13:11:01;22.37;;;21.92;;
69837;SDS011;57135;51.992;4.476;2024-03-08T13:13:28;21.26;;;20.94;;
69837;SDS011;57135;51.992;4.476;2024-03-08T13:15:54;22.25;;;22.08;;
69837;SDS011;57135;51.992;4.476;2024-03-08T13:18:21;21.78;;;21.53;;
69837;SDS011;57135;51.992;4.476;2024-03-08T13:20:49;21.59;;;21.29;;
69837;SDS011;57135;51.992;4.476;2024-03-08T13:23:17;21.91;;;21.45;;
69837;SDS011;57135;51.992;4.476;2024-03-08T13:25:42;22.08;;;21.65;;
69837;SDS011;57135;51.992;4.476;2024-03-08T13:28:09;22.23;;;21.77;;
69837;SDS011;57135;51.992;4.476;2024-03-08T13:30:34;22.25;;;21.71;;
69837;SDS011;57135;51.992;4.476;2024-03-08T13:33:00;21.74;;;21.10;;
69837;SDS011;57135;51.992;4.476;2024-03-08T13:35:26;20.96;;;20.57;;
69837;SDS011;57135;51.992;4.476;2024-03-08T13:37:53;20.60;;;20.41;;
69837;SDS011;57135;51.992;4.476;2024-03-08T13:40:19;20.99;;;20.69;;
69837;SDS011;57135;51.992;4.476;2024-03-08T13:42:48;21.47;;;21.29;;
69837;SDS011;57135;51.992;4.476;2024-03-08T13:45:16;21.58;;;21.19;;
69837;SDS011;57135;51.992;4.476;2024-03-08T13:47:49;21.14;;;20.84;;
69837;SDS011;57135;51.992;4.476;2024-03-08T13:50:16;21.97;;;21.44;;
69837;SDS011;57135;51.992;4.476;2024-03-08T13:52:46;21.65;;;21.19;;
69837;SDS011;57135;51.992;4.476;2024-03-08T13:55:12;21.75;;;21.46;;
69837;SDS011;57135;51.992;4.476;2024-03-08T13:57:38;20.99;;;20.74;;
69837;SDS011;57135;51.992;4.476;2024-03-08T14:00:03;21.02;;;20.75;;
69837;SDS011;57135;51.992;4.476;2024-03-08T14:02:32;21.54;;;21.13;;
69837;SDS011;57135;51.992;4.476;2024-03-08T14:04:59;21.01;;;20.79;;
69837;SDS011;57135;51.992;4.476;2024-03-08T14:07:26;21.63;;;21.17;;
69837;SDS011;57135;51.992;4.476;2024-03-08T14:09:54;22.25;;;21.69;;
69837;SDS011;57135;51.992;4.476;2024-03-08T14:12:22;21.38;;;20.96;;
69837;SDS011;57135;51.992;4.476;2024-03-08T14:14:51;21.21;;;20.90;;
69837;SDS011;57135;51.992;4.476;2024-03-08T14:17:17;22.01;;;21.46;;
69837;SDS011;57135;51.992;4.476;2024-03-08T14:19:43;22.74;;;22.27;;
69837;SDS011;57135;51.992;4.476;2024-03-08T14:22:08;22.50;;;22.12;;
69837;SDS011;57135;51.992;4.476;2024-03-08T14:24:38;21.58;;;21.16;;
69837;SDS011;57135;51.992;4.476;2024-03-08T14:27:04;21.66;;;21.32;;
69837;SDS011;57135;51.992;4.476;2024-03-08T14:29:31;20.67;;;20.48;;
69837;SDS011;57135;51.992;4.476;2024-03-08T14:31:58;20.76;;;20.42;;
69837;SDS011;57135;51.992;4.476;2024-03-08T14:34:27;20.91;;;20.49;;
69837;SDS011;57135;51.992;4.476;2024-03-08T14:36:54;21.09;;;20.60;;
69837;SDS011;57135;51.992;4.476;2024-03-08T14:39:20;21.96;;;21.48;;
69837;SDS011;57135;51.992;4.476;2024-03-08T14:41:50;21.59;;;21.11;;
69837;SDS011;57135;51.992;4.476;2024-03-08T14:44:19;21.43;;;21.03;;
69837;SDS011;57135;51.992;4.476;2024-03-08T14:46:44;21.89;;;21.25;;
69837;SDS011;57135;51.992;4.476;2024-03-08T14:49:11;22.00;;;21.55;;
69837;SDS011;57135;51.992;4.476;2024-03-08T14:51:36;21.41;;;21.09;;
69837;SDS011;57135;51.992;4.476;2024-03-08T14:54:02;21.75;;;21.32;;
69837;SDS011;57135;51.992;4.476;2024-03-08T14:56:31;21.12;;;20.84;;
69837;SDS011;57135;51.992;4.476;2024-03-08T14:59:00;21.59;;;21.27;;
69837;SDS011;57135;51.992;4.476;2024-03-08T15:01:26;21.77;;;21.21;;
69837;SDS011;57135;51.992;4.476;2024-03-08T15:03:54;21.77;;;21.31;;
69837;SDS011;57135;51.992;4.476;2024-03-08T15:06:20;20.92;;;20.68;;
69837;SDS011;57135;51.992;4.476;2024-03-08T15:08:47;21.62;;;21.27;;
69837;SDS011;57135;51.992;4.476;2024-03-08T15:11:12;21.71;;;21.52;;
69837;SDS011;57135;51.992;4.476;2024-03-08T15:13:46;20.80;;;20.53;;
69837;SDS011;57135;51.992;4.476;2024-03-08T15:16:16;21.52;;;21.18;;
69837;SDS011;57135;51.992;4.476;2024-03-08T15:18:48;22.18;;;21.82;;
69837;SDS011;57135;51.992;4.476;2024-03-08T15:21:16;22.03;;;21.70;;
69837;SDS011;57135;51.992;4.476;2024-03-08T15:23:45;22.24;;;21.84;;
69837;SDS011;57135;51.992;4.476;2024-03-08T15:26:19;22.18;;;21.79;;
69837;SDS011;57135;51.992;4.476;2024-03-08T15:28:44;22.76;;;22.33;;
69837;SDS011;57135;51.992;4.476;2024-03-08T15:31:11;22.83;;;22.36;;
69837;SDS011;57135;51.992;4.476;2024-03-08T15:33:39;22.10;;;21.72;;
69837;SDS011;57135;51.992;4.476;2024-03-08T15:36:13;23.00;;;22.53;;
69837;SDS011;57135;51.992;4.476;2024-03-08T15:38:41;22.70;;;22.11;;
69837;SDS011;57135;51.992;4.476;2024-03-08T15:41:08;22.11;;;21.65;;
69837;SDS011;57135;51.992;4.476;2024-03-08T15:43:38;22.72;;;22.29;;
69837;SDS011;57135;51.992;4.476;2024-03-08T15:46:04;22.30;;;21.82;;
69837;SDS011;57135;51.992;4.476;2024-03-08T15:48:36;22.44;;;22.17;;
69837;SDS011;57135;51.992;4.476;2024-03-08T15:51:03;22.90;;;22.39;;
69837;SDS011;57135;51.992;4.476;2024-03-08T15:53:33;22.87;;;22.41;;
69837;SDS011;57135;51.992;4.476;2024-03-08T15:56:00;22.66;;;22.33;;
69837;SDS011;57135;51.992;4.476;2024-03-08T15:58:27;22.55;;;22.19;;
69837;SDS011;57135;51.992;4.476;2024-03-08T16:00:55;23.28;;;22.59;;
69837;SDS011;57135;51.992;4.476;2024-03-08T16:03:22;23.22;;;22.72;;
69837;SDS011;57135;51.992;4.476;2024-03-08T16:05:48;23.77;;;23.28;;
69837;SDS011;57135;51.992;4.476;2024-03-08T16:08:18;23.06;;;22.71;;
69837;SDS011;57135;51.992;4.476;2024-03-08T16:10:46;23.49;;;23.09;;
69837;SDS011;57135;51.992;4.476;2024-03-08T16:13:16;23.05;;;22.86;;
69837;SDS011;57135;51.992;4.476;2024-03-08T16:15:45;23.20;;;22.88;;
69837;SDS011;57135;51.992;4.476;2024-03-08T16:18:14;23.16;;;22.68;;
69837;SDS011;57135;51.992;4.476;2024-03-08T16:20:41;23.34;;;22.82;;
69837;SDS011;57135;51.992;4.476;2024-03-08T16:23:09;23.28;;;22.80;;
69837;SDS011;57135;51.992;4.476;2024-03-08T16:25:36;23.01;;;22.68;;
69837;SDS011;57135;51.992;4.476;2024-03-08T16:28:04;23.17;;;22.79;;
69837;SDS011;57135;51.992;4.476;2024-03-08T16:30:33;22.98;;;22.67;;
69837;SDS011;57135;51.992;4.476;2024-03-08T16:32:59;23.34;;;22.98;;
69837;SDS011;57135;51.992;4.476;2024-03-08T16:35:25;23.18;;;22.65;;
69837;SDS011;57135;51.992;4.476;2024-03-08T16:37:50;22.82;;;22.15;;
69837;SDS011;57135;51.992;4.476;2024-03-08T16:40:17;22.21;;;21.85;;
69837;SDS011;57135;51.992;4.476;2024-03-08T16:42:45;22.48;;;22.10;;
69837;SDS011;57135;51.992;4.476;2024-03-08T16:45:20;22.61;;;22.30;;
69837;SDS011;57135;51.992;4.476;2024-03-08T16:47:49;23.00;;;22.37;;
69837;SDS011;57135;51.992;4.476;2024-03-08T16:50:21;22.43;;;21.92;;
69837;SDS011;57135;51.992;4.476;2024-03-08T16:52:48;22.98;;;22.48;;
69837;SDS011;57135;51.992;4.476;2024-03-08T16:55:17;22.92;;;22.45;;
69837;SDS011;57135;51.992;4.476;2024-03-08T16:57:43;22.98;;;22.46;;
69837;SDS011;57135;51.992;4.476;2024-03-08T17:02:39;23.44;;;22.95;;
69837;SDS011;57135;51.992;4.476;2024-03-08T17:05:05;22.61;;;22.21;;
69837;SDS011;57135;51.992;4.476;2024-03-08T17:07:31;23.67;;;23.14;;
69837;SDS011;57135;51.992;4.476;2024-03-08T17:09:58;23.08;;;22.54;;
69837;SDS011;57135;51.992;4.476;2024-03-08T17:12:27;23.38;;;22.86;;
69837;SDS011;57135;51.992;4.476;2024-03-08T17:14:53;23.40;;;22.91;;
69837;SDS011;57135;51.992;4.476;2024-03-08T17:17:18;22.32;;;22.07;;
69837;SDS011;57135;51.992;4.476;2024-03-08T17:19:43;22.86;;;22.50;;
69837;SDS011;57135;51.992;4.476;2024-03-08T17:22:10;22.51;;;22.11;;
69837;SDS011;57135;51.992;4.476;2024-03-08T17:24:36;22.68;;;22.21;;
69837;SDS011;57135;51.992;4.476;2024-03-08T17:27:02;22.75;;;22.24;;
69837;SDS011;57135;51.992;4.476;2024-03-08T17:29:28;22.65;;;22.25;;
69837;SDS011;57135;51.992;4.476;2024-03-08T17:31:54;22.25;;;21.88;;
69837;SDS011;57135;51.992;4.476;2024-03-08T17:34:19;22.84;;;22.33;;
69837;SDS011;57135;51.992;4.476;2024-03-08T17:36:45;23.35;;;22.70;;
69837;SDS011;57135;51.992;4.476;2024-03-08T17:39:11;22.99;;;22.41;;
69837;SDS011;57135;51.992;4.476;2024-03-08T17:41:46;22.32;;;21.85;;
69837;SDS011;57135;51.992;4.476;2024-03-08T17:44:16;22.94;;;22.50;;
69837;SDS011;57135;51.992;4.476;2024-03-08T17:46:43;22.47;;;22.04;;
69837;SDS011;57135;51.992;4.476;2024-03-08T17:49:12;21.95;;;21.56;;
69837;SDS011;57135;51.992;4.476;2024-03-08T17:51:42;22.59;;;21.90;;
69837;SDS011;57135;51.992;4.476;2024-03-08T17:54:08;23.21;;;22.70;;
69837;SDS011;57135;51.992;4.476;2024-03-08T17:56:39;22.71;;;22.22;;
69837;SDS011;57135;51.992;4.476;2024-03-08T17:59:05;21.79;;;21.47;;
69837;SDS011;57135;51.992;4.476;2024-03-08T18:01:37;22.16;;;21.76;;
69837;SDS011;57135;51.992;4.476;2024-03-08T18:04:06;22.31;;;21.90;;
69837;SDS011;57135;51.992;4.476;2024-03-08T18:06:32;22.57;;;22.09;;
69837;SDS011;57135;51.992;4.476;2024-03-08T18:09:02;21.87;;;21.52;;
69837;SDS011;57135;51.992;4.476;2024-03-08T18:11:31;22.82;;;22.44;;
69837;SDS011;57135;51.992;4.476;2024-03-08T18:13:56;24.12;;;23.66;;
69837;SDS011;57135;51.992;4.476;2024-03-08T18:16:22;23.64;;;23.13;;
69837;SDS011;57135;51.992;4.476;2024-03-08T18:18:47;23.58;;;23.16;;
69837;SDS011;57135;51.992;4.476;2024-03-08T18:21:15;23.01;;;22.74;;
69837;SDS011;57135;51.992;4.476;2024-03-08T18:23:40;23.02;;;22.61;;
69837;SDS011;57135;51.992;4.476;2024-03-08T18:26:10;22.95;;;22.61;;
69837;SDS011;57135;51.992;4.476;2024-03-08T18:28:35;23.79;;;23.12;;
69837;SDS011;57135;51.992;4.476;2024-03-08T18:31:03;23.20;;;22.79;;
69837;SDS011;57135;51.992;4.476;2024-03-08T18:33:28;23.04;;;22.70;;
69837;SDS011;57135;51.992;4.476;2024-03-08T18:35:57;23.26;;;22.88;;